sensor_id;sensor_type;location;lat;lon;timestamp;pressure;altitude;pressure_sealevel;temperature;humidity
70200;BME280;57587;55.688;37.600;2023-03-15T00:01:09;98893.91;;;5.27;46.13
70200;BME280;57587;55.688;37.600;2023-03-15T00:03:37;98894.06;;;5.26;46.29
70200;BME280;57587;55.688;37.600;2023-03-15T00:06:05;98889.94;;;5.15;46.22
70200;BME280;57587;55.688;37.600;2023-03-15T00:08:32;98892.09;;;5.12;46.75
70200;BME280;57587;55.688;37.600;2023-03-15T00:11:00;98884.47;;;5.08;47.31
70200;BME280;57587;55.688;37.600;2023-03-15T00:13:27;98896.72;;;5.09;47.35
70200;BME280;57587;55.688;37.600;2023-03-15T00:15:59;98889.28;;;5.05;46.94
70200;BME280;57587;55.688;37.600;2023-03-15T00:18:27;98892.94;;;5.12;47.24
70200;BME280;57587;55.688;37.600;2023-03-15T00:20:54;98889.13;;;5.15;47.48
70200;BME280;57587;55.688;37.600;2023-03-15T00:23:21;98897.56;;;5.10;47.58
70200;BME280;57587;55.688;37.600;2023-03-15T00:25:50;98891.75;;;5.06;47.44
70200;BME280;57587;55.688;37.600;2023-03-15T00:28:18;98896.06;;;5.07;48.25
70200;BME280;57587;55.688;37.600;2023-03-15T00:30:45;98892.28;;;5.02;48.09
70200;BME280;57587;55.688;37.600;2023-03-15T00:33:15;98893.06;;;4.94;48.30
70200;BME280;57587;55.688;37.600;2023-03-15T00:35:43;98895.91;;;4.93;47.63
70200;BME280;57587;55.688;37.600;2023-03-15T00:38:11;98884.66;;;4.99;47.76
70200;BME280;57587;55.688;37.600;2023-03-15T00:40:41;98882.00;;;4.99;48.54
70200;BME280;57587;55.688;37.600;2023-03-15T00:43:08;98887.44;;;4.97;48.27
70200;BME280;57587;55.688;37.600;2023-03-15T00:45:35;98883.63;;;5.00;48.09
70200;BME280;57587;55.688;37.600;2023-03-15T00:48:03;98891.75;;;5.06;48.40
70200;BME280;57587;55.688;37.600;2023-03-15T00:50:30;98879.50;;;5.05;48.36
70200;BME280;57587;55.688;37.600;2023-03-15T00:52:57;98878.16;;;5.09;48.21
70200;BME280;57587;55.688;37.600;2023-03-15T00:55:27;98881.31;;;5.13;48.45
70200;BME280;57587;55.688;37.600;2023-03-15T00:57:55;98889.78;;;5.08;48.25
70200;BME280;57587;55.688;37.600;2023-03-15T01:00:23;98885.66;;;5.14;48.67
70200;BME280;57587;55.688;37.600;2023-03-15T01:02:53;98880.16;;;5.16;48.37
70200;BME280;57587;55.688;37.600;2023-03-15T01:05:21;98882.00;;;5.15;48.03
70200;BME280;57587;55.688;37.600;2023-03-15T01:07:48;98877.00;;;5.12;48.06
70200;BME280;57587;55.688;37.600;2023-03-15T01:10:17;98877.34;;;5.17;48.74
70200;BME280;57587;55.688;37.600;2023-03-15T01:12:45;98886.13;;;5.18;48.06
70200;BME280;57587;55.688;37.600;2023-03-15T01:15:14;98880.50;;;5.13;48.68
70200;BME280;57587;55.688;37.600;2023-03-15T01:17:42;98877.50;;;5.16;48.76
70200;BME280;57587;55.688;37.600;2023-03-15T01:20:12;98882.47;;;5.11;48.86
70200;BME280;57587;55.688;37.600;2023-03-15T01:22:41;98882.50;;;5.02;49.08
70200;BME280;57587;55.688;37.600;2023-03-15T01:25:08;98877.19;;;5.02;49.35
70200;BME280;57587;55.688;37.600;2023-03-15T01:27:36;98881.47;;;4.95;49.38
70200;BME280;57587;55.688;37.600;2023-03-15T01:30:04;98880.16;;;4.99;49.40
70200;BME280;57587;55.688;37.600;2023-03-15T01:32:32;98870.38;;;5.00;50.20
70200;BME280;57587;55.688;37.600;2023-03-15T01:35:00;98877.81;;;5.04;49.96
70200;BME280;57587;55.688;37.600;2023-03-15T01:37:28;98880.66;;;5.03;50.03
70200;BME280;57587;55.688;37.600;2023-03-15T01:39:56;98879.50;;;5.05;49.50
70200;BME280;57587;55.688;37.600;2023-03-15T01:42:23;98878.84;;;5.03;49.59
70200;BME280;57587;55.688;37.600;2023-03-15T01:44:51;98880.31;;;5.06;50.08
70200;BME280;57587;55.688;37.600;2023-03-15T01:47:19;98881.16;;;5.06;49.53
70200;BME280;57587;55.688;37.600;2023-03-15T01:49:53;98875.69;;;5.08;49.50
70200;BME280;57587;55.688;37.600;2023-03-15T01:52:30;98880.16;;;5.07;49.62
70200;BME280;57587;55.688;37.600;2023-03-15T01:55:15;98867.56;;;5.09;49.77
70200;BME280;57587;55.688;37.600;2023-03-15T01:58:05;98888.94;;;5.16;50.14
70200;BME280;57587;55.688;37.600;2023-03-15T02:00:37;98883.81;;;5.15;50.11
70200;BME280;57587;55.688;37.600;2023-03-15T02:03:12;98877.50;;;5.16;49.73
70200;BME280;57587;55.688;37.600;2023-03-15T02:05:47;98887.63;;;5.20;50.60
70200;BME280;57587;55.688;37.600;2023-03-15T02:08:25;98889.94;;;5.15;50.54
70200;BME280;57587;55.688;37.600;2023-03-15T02:10:55;98888.47;;;5.21;50.17
70200;BME280;57587;55.688;37.600;2023-03-15T02:13:27;98884.81;;;5.22;50.52
70200;BME280;57587;55.688;37.600;2023-03-15T02:15:57;98882.50;;;5.27;50.57
70200;BME280;57587;55.688;37.600;2023-03-15T02:18:33;98891.28;;;5.27;50.26
70200;BME280;57587;55.688;37.600;2023-03-15T02:23:50;98896.22;;;5.39;50.20
70200;BME280;57587;55.688;37.600;2023-03-15T02:26:46;98895.41;;;5.38;50.44
70200;BME280;57587;55.688;37.600;2023-03-15T02:29:14;98892.59;;;5.40;49.69
70200;BME280;57587;55.688;37.600;2023-03-15T02:31:42;98895.41;;;5.38;50.13
70200;BME280;57587;55.688;37.600;2023-03-15T02:34:09;98897.06;;;5.31;49.99
70200;BME280;57587;55.688;37.600;2023-03-15T02:36:36;98890.44;;;5.19;50.79
70200;BME280;57587;55.688;37.600;2023-03-15T02:39:18;98885.97;;;5.19;50.75
70200;BME280;57587;55.688;37.600;2023-03-15T02:41:52;98885.78;;;5.04;50.39
70200;BME280;57587;55.688;37.600;2023-03-15T02:44:38;98887.44;;;4.97;50.93
70200;BME280;57587;55.688;37.600;2023-03-15T02:47:14;98886.78;;;5.03;51.05
70200;BME280;57587;55.688;37.600;2023-03-15T02:49:44;98893.06;;;5.11;51.00
70200;BME280;57587;55.688;37.600;2023-03-15T02:52:15;98879.47;;;5.14;50.24
70200;BME280;57587;55.688;37.600;2023-03-15T02:54:42;98890.78;;;5.16;51.28
70200;BME280;57587;55.688;37.600;2023-03-15T02:57:11;98890.09;;;5.22;50.53
70200;BME280;57587;55.688;37.600;2023-03-15T02:59:39;98888.13;;;5.24;51.39
70200;BME280;57587;55.688;37.600;2023-03-15T03:02:09;98892.75;;;5.14;51.05
70200;BME280;57587;55.688;37.600;2023-03-15T03:04:41;98894.59;;;5.05;51.50
70200;BME280;57587;55.688;37.600;2023-03-15T03:07:09;98894.41;;;4.98;51.36
70200;BME280;57587;55.688;37.600;2023-03-15T03:09:49;98890.09;;;4.97;51.12
70200;BME280;57587;55.688;37.600;2023-03-15T03:12:17;98901.53;;;4.98;51.28
70200;BME280;57587;55.688;37.600;2023-03-15T03:14:45;98913.13;;;4.97;51.06
70200;BME280;57587;55.688;37.600;2023-03-15T03:17:16;98902.19;;;4.92;51.38
70200;BME280;57587;55.688;37.600;2023-03-15T03:19:44;98895.38;;;4.89;51.62
70200;BME280;57587;55.688;37.600;2023-03-15T03:22:12;98900.03;;;4.87;51.44
70200;BME280;57587;55.688;37.600;2023-03-15T03:24:39;98896.72;;;4.85;51.88
70200;BME280;57587;55.688;37.600;2023-03-15T03:27:14;98883.47;;;4.85;52.27
70200;BME280;57587;55.688;37.600;2023-03-15T03:29:43;98877.16;;;4.78;52.11
70200;BME280;57587;55.688;37.600;2023-03-15T03:32:10;98891.22;;;4.70;52.46
70200;BME280;57587;55.688;37.600;2023-03-15T03:34:38;98890.06;;;4.73;52.49
70200;BME280;57587;55.688;37.600;2023-03-15T03:37:06;98898.69;;;4.75;52.19
70200;BME280;57587;55.688;37.600;2023-03-15T03:39:52;98898.50;;;4.68;52.49
70200;BME280;57587;55.688;37.600;2023-03-15T03:42:20;98896.00;;;4.67;52.41
70200;BME280;57587;55.688;37.600;2023-03-15T03:44:47;98893.53;;;4.65;52.73
70200;BME280;57587;55.688;37.600;2023-03-15T03:47:17;98903.13;;;4.66;52.62
70200;BME280;57587;55.688;37.600;2023-03-15T03:49:44;98891.03;;;4.63;52.70
70200;BME280;57587;55.688;37.600;2023-03-15T03:52:11;98911.25;;;4.73;52.60
70200;BME280;57587;55.688;37.600;2023-03-15T03:54:39;98909.44;;;4.73;52.14
70200;BME280;57587;55.688;37.600;2023-03-15T03:57:09;98909.28;;;4.75;52.17
70200;BME280;57587;55.688;37.600;2023-03-15T03:59:37;98907.25;;;4.60;52.71
70200;BME280;57587;55.688;37.600;2023-03-15T04:02:05;98917.84;;;4.60;52.25
70200;BME280;57587;55.688;37.600;2023-03-15T04:04:33;98912.91;;;4.74;52.16
70200;BME280;57587;55.688;37.600;2023-03-15T04:07:01;98915.75;;;4.80;52.00
70200;BME280;57587;55.688;37.600;2023-03-15T04:09:33;98927.84;;;4.83;51.85
70200;BME280;57587;55.688;37.600;2023-03-15T04:12:04;98915.44;;;4.92;51.41
70200;BME280;57587;55.688;37.600;2023-03-15T04:14:33;98906.00;;;5.14;51.08
70200;BME280;57587;55.688;37.600;2023-03-15T04:17:03;98918.28;;;5.31;50.69
70200;BME280;57587;55.688;37.600;2023-03-15T04:19:31;98913.63;;;5.49;50.38
70200;BME280;57587;55.688;37.600;2023-03-15T04:22:00;98910.31;;;5.47;50.20
70200;BME280;57587;55.688;37.600;2023-03-15T04:24:55;98916.78;;;5.37;49.90
70200;BME280;57587;55.688;37.600;2023-03-15T04:27:42;98922.44;;;5.25;50.81
70200;BME280;57587;55.688;37.600;2023-03-15T04:30:19;98910.81;;;5.18;49.95
70200;BME280;57587;55.688;37.600;2023-03-15T04:33:19;98916.78;;;5.45;49.97
70200;BME280;57587;55.688;37.600;2023-03-15T04:36:08;98905.69;;;5.49;50.18
70200;BME280;57587;55.688;37.600;2023-03-15T04:39:01;98917.75;;;5.68;49.37
70200;BME280;57587;55.688;37.600;2023-03-15T04:41:51;98920.72;;;5.98;48.48
70200;BME280;57587;55.688;37.600;2023-03-15T04:44:29;98929.97;;;6.10;48.70
70200;BME280;57587;55.688;37.600;2023-03-15T04:47:15;98922.16;;;6.17;48.81
70200;BME280;57587;55.688;37.600;2023-03-15T04:50:02;98933.13;;;6.14;48.33
70200;BME280;57587;55.688;37.600;2023-03-15T04:52:54;98937.09;;;6.18;47.74
70200;BME280;57587;55.688;37.600;2023-03-15T04:55:40;98947.63;;;6.42;47.05
70200;BME280;57587;55.688;37.600;2023-03-15T04:58:07;98932.50;;;6.43;47.45
70200;BME280;57587;55.688;37.600;2023-03-15T05:00:48;98947.28;;;6.45;46.91
70200;BME280;57587;55.688;37.600;2023-03-15T05:03:28;98951.47;;;6.32;46.87
70200;BME280;57587;55.688;37.600;2023-03-15T05:06:27;98952.66;;;6.29;47.62
70200;BME280;57587;55.688;37.600;2023-03-15T05:09:13;98946.00;;;6.25;47.05
70200;BME280;57587;55.688;37.600;2023-03-15T05:12:16;98956.28;;;6.36;47.01
70200;BME280;57587;55.688;37.600;2023-03-15T05:14:59;98960.09;;;6.73;46.13
70200;BME280;57587;55.688;37.600;2023-03-15T05:17:52;98961.41;;;6.77;45.59
70200;BME280;57587;55.688;37.600;2023-03-15T05:20:40;98969.84;;;7.12;45.02
70200;BME280;57587;55.688;37.600;2023-03-15T05:23:13;98973.00;;;7.15;44.13
70200;BME280;57587;55.688;37.600;2023-03-15T05:25:53;98975.00;;;7.36;44.43
70200;BME280;57587;55.688;37.600;2023-03-15T05:28:39;98975.03;;;7.74;43.13
70200;BME280;57587;55.688;37.600;2023-03-15T05:31:26;98987.22;;;8.81;41.20
70200;BME280;57587;55.688;37.600;2023-03-15T05:34:17;98973.72;;;9.89;38.22
70200;BME280;57587;55.688;37.600;2023-03-15T05:37:11;98980.09;;;10.99;36.88
70200;BME280;57587;55.688;37.600;2023-03-15T05:39:38;98974.25;;;11.57;35.43
70200;BME280;57587;55.688;37.600;2023-03-15T05:42:13;98975.88;;;12.44;34.05
70200;BME280;57587;55.688;37.600;2023-03-15T05:45:18;98981.38;;;12.63;32.64
70200;BME280;57587;55.688;37.600;2023-03-15T05:47:59;98979.09;;;12.73;32.68
70200;BME280;57587;55.688;37.600;2023-03-15T05:50:36;98989.53;;;13.40;31.59
70200;BME280;57587;55.688;37.600;2023-03-15T05:53:15;98988.94;;;13.94;31.10
70200;BME280;57587;55.688;37.600;2023-03-15T05:56:05;98987.34;;;14.73;29.57
70200;BME280;57587;55.688;37.600;2023-03-15T05:58:48;98995.66;;;15.20;28.62
70200;BME280;57587;55.688;37.600;2023-03-15T06:01:35;98978.53;;;15.75;27.59
70200;BME280;57587;55.688;37.600;2023-03-15T06:04:28;98986.19;;;16.37;27.04
70200;BME280;57587;55.688;37.600;2023-03-15T06:06:57;98989.34;;;16.57;26.37
70200;BME280;57587;55.688;37.600;2023-03-15T06:09:24;98997.31;;;16.52;26.80
70200;BME280;57587;55.688;37.600;2023-03-15T06:11:51;99003.44;;;16.48;26.92
70200;BME280;57587;55.688;37.600;2023-03-15T06:14:20;98994.09;;;17.31;26.03
70200;BME280;57587;55.688;37.600;2023-03-15T06:16:54;99003.56;;;18.08;24.99
70200;BME280;57587;55.688;37.600;2023-03-15T06:19:23;98999.59;;;17.08;25.40
70200;BME280;57587;55.688;37.600;2023-03-15T06:21:52;99004.00;;;16.03;26.54
70200;BME280;57587;55.688;37.600;2023-03-15T06:24:40;99001.34;;;14.39;28.98
70200;BME280;57587;55.688;37.600;2023-03-15T06:27:07;98998.56;;;13.52;30.74
70200;BME280;57587;55.688;37.600;2023-03-15T06:29:35;99008.97;;;13.42;31.19
70200;BME280;57587;55.688;37.600;2023-03-15T06:32:03;99008.91;;;14.05;29.84
70200;BME280;57587;55.688;37.600;2023-03-15T06:34:32;99001.63;;;14.12;30.71
70200;BME280;57587;55.688;37.600;2023-03-15T06:36:59;99008.06;;;14.91;28.84
70200;BME280;57587;55.688;37.600;2023-03-15T06:39:26;98999.78;;;15.23;28.61
70200;BME280;57587;55.688;37.600;2023-03-15T06:41:54;99025.28;;;15.69;27.90
70200;BME280;57587;55.688;37.600;2023-03-15T06:44:27;99012.25;;;14.87;29.07
70200;BME280;57587;55.688;37.600;2023-03-15T06:47:00;99000.97;;;14.79;28.96
70200;BME280;57587;55.688;37.600;2023-03-15T06:49:27;99013.41;;;15.28;29.02
70200;BME280;57587;55.688;37.600;2023-03-15T06:51:56;99012.03;;;14.70;29.44
70200;BME280;57587;55.688;37.600;2023-03-15T06:54:23;99017.94;;;15.88;27.80
70200;BME280;57587;55.688;37.600;2023-03-15T06:56:50;99020.75;;;17.11;26.32
70200;BME280;57587;55.688;37.600;2023-03-15T06:59:18;99029.50;;;18.37;24.92
70200;BME280;57587;55.688;37.600;2023-03-15T07:01:45;99012.69;;;17.73;25.38
70200;BME280;57587;55.688;37.600;2023-03-15T07:04:12;99026.88;;;17.35;25.98
70200;BME280;57587;55.688;37.600;2023-03-15T07:06:39;99029.28;;;16.79;26.62
70200;BME280;57587;55.688;37.600;2023-03-15T07:09:07;99017.94;;;16.94;26.60
70200;BME280;57587;55.688;37.600;2023-03-15T07:11:34;99029.91;;;17.10;26.42
70200;BME280;57587;55.688;37.600;2023-03-15T07:14:01;99032.31;;;17.35;26.29
70200;BME280;57587;55.688;37.600;2023-03-15T07:16:28;99037.03;;;18.02;25.66
70200;BME280;57587;55.688;37.600;2023-03-15T07:18:55;99032.06;;;19.54;24.16
70200;BME280;57587;55.688;37.600;2023-03-15T07:21:25;99029.59;;;19.25;23.60
70200;BME280;57587;55.688;37.600;2023-03-15T07:23:53;99036.09;;;19.24;23.67
70200;BME280;57587;55.688;37.600;2023-03-15T07:26:21;99038.94;;;19.62;23.36
70200;BME280;57587;55.688;37.600;2023-03-15T07:28:48;99044.28;;;19.78;23.11
70200;BME280;57587;55.688;37.600;2023-03-15T07:31:15;99036.00;;;18.75;24.03
70200;BME280;57587;55.688;37.600;2023-03-15T07:33:43;99043.91;;;17.64;25.23
70200;BME280;57587;55.688;37.600;2023-03-15T07:36:10;99042.34;;;17.11;26.14
70200;BME280;57587;55.688;37.600;2023-03-15T07:38:37;99058.22;;;16.01;27.73
70200;BME280;57587;55.688;37.600;2023-03-15T07:41:07;99056.19;;;15.55;28.33
70200;BME280;57587;55.688;37.600;2023-03-15T07:43:37;99052.84;;;15.22;28.81
70200;BME280;57587;55.688;37.600;2023-03-15T07:46:13;99060.28;;;14.90;30.00
70200;BME280;57587;55.688;37.600;2023-03-15T07:48:41;99057.38;;;14.92;29.93
70200;BME280;57587;55.688;37.600;2023-03-15T07:51:09;99069.63;;;14.69;29.97
70200;BME280;57587;55.688;37.600;2023-03-15T07:53:36;99071.28;;;14.20;30.97
70200;BME280;57587;55.688;37.600;2023-03-15T07:56:03;99069.97;;;13.73;31.55
70200;BME280;57587;55.688;37.600;2023-03-15T07:58:30;99076.88;;;13.94;32.14
70200;BME280;57587;55.688;37.600;2023-03-15T08:00:57;99061.19;;;13.91;31.73
70200;BME280;57587;55.688;37.600;2023-03-15T08:03:25;99059.41;;;13.71;32.18
70200;BME280;57587;55.688;37.600;2023-03-15T08:05:53;99064.53;;;13.48;32.40
70200;BME280;57587;55.688;37.600;2023-03-15T08:08:20;99058.63;;;13.32;32.67
70200;BME280;57587;55.688;37.600;2023-03-15T08:10:47;99070.34;;;12.80;33.33
70200;BME280;57587;55.688;37.600;2023-03-15T08:13:14;99064.84;;;12.48;33.86
70200;BME280;57587;55.688;37.600;2023-03-15T08:15:44;99072.88;;;12.41;34.29
70200;BME280;57587;55.688;37.600;2023-03-15T08:18:11;99069.53;;;12.66;33.94
70200;BME280;57587;55.688;37.600;2023-03-15T08:20:38;99071.97;;;12.87;34.06
70200;BME280;57587;55.688;37.600;2023-03-15T08:23:05;99069.94;;;12.63;34.42
70200;BME280;57587;55.688;37.600;2023-03-15T08:25:34;99077.78;;;12.78;34.31
70200;BME280;57587;55.688;37.600;2023-03-15T08:28:06;99069.50;;;12.86;34.11
70200;BME280;57587;55.688;37.600;2023-03-15T08:30:33;99077.63;;;12.53;34.44
70200;BME280;57587;55.688;37.600;2023-03-15T08:33:01;99067.09;;;12.31;35.20
70200;BME280;57587;55.688;37.600;2023-03-15T08:35:28;99071.22;;;12.40;35.38
70200;BME280;57587;55.688;37.600;2023-03-15T08:37:56;99077.00;;;12.64;35.06
70200;BME280;57587;55.688;37.600;2023-03-15T08:40:23;99069.34;;;12.61;35.22
70200;BME280;57587;55.688;37.600;2023-03-15T08:42:55;99082.16;;;12.45;35.50
70200;BME280;57587;55.688;37.600;2023-03-15T08:45:24;99087.75;;;12.24;36.36
70200;BME280;57587;55.688;37.600;2023-03-15T08:47:58;99089.59;;;12.04;36.43
70200;BME280;57587;55.688;37.600;2023-03-15T08:50:26;99091.84;;;12.07;36.30
70200;BME280;57587;55.688;37.600;2023-03-15T08:52:54;99089.47;;;11.57;37.75
70200;BME280;57587;55.688;37.600;2023-03-15T08:55:21;99084.38;;;11.21;38.24
70200;BME280;57587;55.688;37.600;2023-03-15T08:57:49;99080.16;;;10.57;39.66
70200;BME280;57587;55.688;37.600;2023-03-15T09:00:16;99089.25;;;10.63;39.41
70200;BME280;57587;55.688;37.600;2023-03-15T09:02:47;99078.06;;;10.52;40.11
70200;BME280;57587;55.688;37.600;2023-03-15T09:05:15;99085.16;;;10.67;40.00
70200;BME280;57587;55.688;37.600;2023-03-15T09:07:43;99079.97;;;10.65;39.89
70200;BME280;57587;55.688;37.600;2023-03-15T09:10:13;99077.66;;;10.55;39.94
70200;BME280;57587;55.688;37.600;2023-03-15T09:12:45;99082.56;;;10.52;40.66
70200;BME280;57587;55.688;37.600;2023-03-15T09:15:12;99079.09;;;10.51;40.03
70200;BME280;57587;55.688;37.600;2023-03-15T09:17:40;99071.84;;;10.45;40.40
70200;BME280;57587;55.688;37.600;2023-03-15T09:20:10;99073.44;;;10.39;40.77
70200;BME280;57587;55.688;37.600;2023-03-15T09:22:41;99074.72;;;10.44;40.90
70200;BME280;57587;55.688;37.600;2023-03-15T09:25:08;99082.06;;;10.35;40.95
70200;BME280;57587;55.688;37.600;2023-03-15T09:27:36;99077.31;;;10.15;42.10
70200;BME280;57587;55.688;37.600;2023-03-15T09:30:03;99078.63;;;9.98;41.84
70200;BME280;57587;55.688;37.600;2023-03-15T09:32:30;99077.88;;;9.83;42.48
70200;BME280;57587;55.688;37.600;2023-03-15T09:35:03;99083.66;;;9.65;42.33
70200;BME280;57587;55.688;37.600;2023-03-15T09:37:31;99078.75;;;9.68;43.14
70200;BME280;57587;55.688;37.600;2023-03-15T09:39:58;99082.50;;;9.74;43.02
70200;BME280;57587;55.688;37.600;2023-03-15T09:48:31;99074.50;;;9.96;42.94
70200;BME280;57587;55.688;37.600;2023-03-15T09:54:07;99071.69;;;10.53;41.92
70200;BME280;57587;55.688;37.600;2023-03-15T09:56:41;99062.50;;;10.63;41.60
70200;BME280;57587;55.688;37.600;2023-03-15T09:59:12;99070.72;;;10.61;41.67
70200;BME280;57587;55.688;37.600;2023-03-15T10:01:44;99068.34;;;10.45;41.87
70200;BME280;57587;55.688;37.600;2023-03-15T10:04:30;99069.75;;;10.69;41.72
70200;BME280;57587;55.688;37.600;2023-03-15T10:07:02;99065.03;;;10.77;41.25
70200;BME280;57587;55.688;37.600;2023-03-15T10:09:31;99065.94;;;10.91;41.22
70200;BME280;57587;55.688;37.600;2023-03-15T10:17:58;99051.94;;;10.89;41.25
70200;BME280;57587;55.688;37.600;2023-03-15T10:20:35;99048.75;;;11.14;41.00
70200;BME280;57587;55.688;37.600;2023-03-15T10:23:14;99050.22;;;11.23;40.25
70200;BME280;57587;55.688;37.600;2023-03-15T10:25:45;99055.56;;;11.23;40.71
70200;BME280;57587;55.688;37.600;2023-03-15T10:28:29;99043.78;;;11.11;40.76
70200;BME280;57587;55.688;37.600;2023-03-15T10:31:12;99051.22;;;12.10;38.93
70200;BME280;57587;55.688;37.600;2023-03-15T10:33:55;99047.53;;;13.09;37.17
70200;BME280;57587;55.688;37.600;2023-03-15T10:36:23;99063.25;;;13.89;36.03
70200;BME280;57587;55.688;37.600;2023-03-15T10:38:51;99059.31;;;14.16;35.04
70200;BME280;57587;55.688;37.600;2023-03-15T10:44:08;99073.75;;;15.09;33.87
70200;BME280;57587;55.688;37.600;2023-03-15T10:46:37;99058.81;;;15.73;32.22
70200;BME280;57587;55.688;37.600;2023-03-15T10:49:12;99070.31;;;16.10;31.87
70200;BME280;57587;55.688;37.600;2023-03-15T10:51:43;99070.72;;;16.85;30.42
70200;BME280;57587;55.688;37.600;2023-03-15T10:54:20;99064.38;;;16.67;30.46
70200;BME280;57587;55.688;37.600;2023-03-15T10:59:26;99071.28;;;17.10;30.30
70200;BME280;57587;55.688;37.600;2023-03-15T11:04:46;99071.88;;;16.53;30.66
70200;BME280;57587;55.688;37.600;2023-03-15T11:07:14;99075.22;;;16.02;31.26
70200;BME280;57587;55.688;37.600;2023-03-15T11:09:44;99074.75;;;15.44;32.06
70200;BME280;57587;55.688;37.600;2023-03-15T11:14:54;99080.72;;;14.04;34.45
70200;BME280;57587;55.688;37.600;2023-03-15T11:17:28;99077.13;;;13.54;35.81
70200;BME280;57587;55.688;37.600;2023-03-15T11:19:59;99066.75;;;13.57;36.06
70200;BME280;57587;55.688;37.600;2023-03-15T11:22:39;99067.16;;;13.61;36.61
70200;BME280;57587;55.688;37.600;2023-03-15T11:25:14;99081.16;;;13.18;36.71
70200;BME280;57587;55.688;37.600;2023-03-15T11:27:42;99063.91;;;12.87;36.98
70200;BME280;57587;55.688;37.600;2023-03-15T11:30:14;99070.78;;;12.70;37.57
70200;BME280;57587;55.688;37.600;2023-03-15T11:32:43;99071.22;;;12.40;38.06
70200;BME280;57587;55.688;37.600;2023-03-15T11:35:19;99064.41;;;12.44;39.02
70200;BME280;57587;55.688;37.600;2023-03-15T11:37:55;99074.13;;;12.39;38.74
70200;BME280;57587;55.688;37.600;2023-03-15T11:40:45;99077.81;;;11.98;39.13
70200;BME280;57587;55.688;37.600;2023-03-15T11:43:23;99075.78;;;12.07;39.54
70200;BME280;57587;55.688;37.600;2023-03-15T11:46:02;99078.16;;;11.62;40.17
70200;BME280;57587;55.688;37.600;2023-03-15T11:48:58;99074.81;;;10.98;41.55
70200;BME280;57587;55.688;37.600;2023-03-15T11:51:32;99061.38;;;10.85;42.03
70200;BME280;57587;55.688;37.600;2023-03-15T11:54:07;99059.38;;;10.94;42.49
70200;BME280;57587;55.688;37.600;2023-03-15T11:59:13;99051.88;;;10.76;42.72
70200;BME280;57587;55.688;37.600;2023-03-15T12:01:46;99060.97;;;10.47;43.31
70200;BME280;57587;55.688;37.600;2023-03-15T12:04:26;99068.16;;;10.25;43.50
70200;BME280;57587;55.688;37.600;2023-03-15T12:06:55;99072.97;;;10.29;44.00
70200;BME280;57587;55.688;37.600;2023-03-15T12:12:14;99090.53;;;10.17;43.80
70200;BME280;57587;55.688;37.600;2023-03-15T12:20:26;99088.19;;;9.86;44.71
70200;BME280;57587;55.688;37.600;2023-03-15T12:28:30;99090.41;;;9.82;45.23
70200;BME280;57587;55.688;37.600;2023-03-15T12:31:03;99093.91;;;9.83;44.89
70200;BME280;57587;55.688;37.600;2023-03-15T12:33:31;99089.31;;;9.77;45.07
70200;BME280;57587;55.688;37.600;2023-03-15T12:36:09;99083.22;;;9.61;45.21
70200;BME280;57587;55.688;37.600;2023-03-15T12:38:53;99095.06;;;9.74;44.64
70200;BME280;57587;55.688;37.600;2023-03-15T12:41:39;99085.38;;;9.51;45.60
70200;BME280;57587;55.688;37.600;2023-03-15T12:44:43;99087.56;;;9.47;45.85
70200;BME280;57587;55.688;37.600;2023-03-15T12:47:11;99088.53;;;9.40;45.56
70200;BME280;57587;55.688;37.600;2023-03-15T12:49:43;99096.25;;;9.35;45.86
70200;BME280;57587;55.688;37.600;2023-03-15T12:54:44;99082.69;;;9.15;46.49
70200;BME280;57587;55.688;37.600;2023-03-15T12:57:20;99093.91;;;9.10;46.98
70200;BME280;57587;55.688;37.600;2023-03-15T13:02:33;99090.59;;;9.08;46.86
70200;BME280;57587;55.688;37.600;2023-03-15T13:05:17;99100.63;;;8.91;47.13
70200;BME280;57587;55.688;37.600;2023-03-15T13:13:06;99102.38;;;8.69;47.74
70200;BME280;57587;55.688;37.600;2023-03-15T13:15:43;99100.19;;;8.58;48.16
70200;BME280;57587;55.688;37.600;2023-03-15T13:18:18;99098.13;;;8.60;48.61
70200;BME280;57587;55.688;37.600;2023-03-15T13:20:49;99087.19;;;8.70;48.12
70200;BME280;57587;55.688;37.600;2023-03-15T13:23:28;99080.31;;;8.75;47.86
70200;BME280;57587;55.688;37.600;2023-03-15T13:28:42;99085.81;;;8.59;47.99
70200;BME280;57587;55.688;37.600;2023-03-15T13:31:23;99093.19;;;8.57;48.74
70200;BME280;57587;55.688;37.600;2023-03-15T13:33:56;99078.66;;;8.60;48.55
70200;BME280;57587;55.688;37.600;2023-03-15T13:39:31;99072.41;;;8.52;48.48
70200;BME280;57587;55.688;37.600;2023-03-15T13:41:58;99079.59;;;8.52;48.95
70200;BME280;57587;55.688;37.600;2023-03-15T13:44:27;99072.56;;;8.51;48.59
70200;BME280;57587;55.688;37.600;2023-03-15T13:46:55;99073.31;;;8.45;48.96
70200;BME280;57587;55.688;37.600;2023-03-15T13:49:23;99073.97;;;8.47;49.04
70200;BME280;57587;55.688;37.600;2023-03-15T13:51:52;99073.53;;;8.35;48.89
70200;BME280;57587;55.688;37.600;2023-03-15T13:54:25;99075.59;;;8.48;48.69
70200;BME280;57587;55.688;37.600;2023-03-15T13:57:00;99073.66;;;8.42;49.11
70200;BME280;57587;55.688;37.600;2023-03-15T14:02:17;99078.47;;;8.23;49.23
70200;BME280;57587;55.688;37.600;2023-03-15T14:04:51;99076.31;;;8.04;49.62
70200;BME280;57587;55.688;37.600;2023-03-15T14:07:26;99075.59;;;8.10;49.96
70200;BME280;57587;55.688;37.600;2023-03-15T14:12:36;99070.63;;;8.07;49.32
70200;BME280;57587;55.688;37.600;2023-03-15T14:15:03;99080.63;;;8.05;49.44
70200;BME280;57587;55.688;37.600;2023-03-15T14:17:30;99074.13;;;8.07;49.60
70200;BME280;57587;55.688;37.600;2023-03-15T14:20:05;99077.16;;;8.04;49.72
70200;BME280;57587;55.688;37.600;2023-03-15T14:22:35;99071.34;;;8.01;49.53
70200;BME280;57587;55.688;37.600;2023-03-15T14:25:03;99078.22;;;7.95;49.72
70200;BME280;57587;55.688;37.600;2023-03-15T14:27:44;99087.47;;;7.84;50.27
70200;BME280;57587;55.688;37.600;2023-03-15T14:30:22;99085.69;;;7.77;49.91